Tiempo atmosférico en la estación meteorológica de Machichaco, Bizkaia (93 m.)



Fecha
DESCASC
Temp. máxima en grados centígrados (hora)
DESCASC
Temp. mínima en grados centígrados (hora)
DESCASC
Temp. media en grados centígrados
DESCASC
Racha de viento máxima en m/sg (hora)
DESCASC
Velocidad máxima media en intervalos de 10 minutos(hora)
DESCASC
Precipitaciones diarias en mm
DESCASC
Precipitaciones de 00:00 a 06:00 en mm
DESCASC
Precipitaciones de 06:00 a 12:00 en mm
DESCASC
Precipitaciones de 12:00 a 18:00 en mm
DESCASC
Precipitaciones de 18:00 a 24:00 en mm
DESCASC
30-12-2019 -- (--) -- (--) -- -- (--) -- (--) -- 0 0 0 --
02-01-2020 15.1 (13:30) 7.4 (00:00) 11.3 11.39 (18:50) 8.61 (18:40) 0 0 0 0 0
15-01-2020 15.9 (10:30) 10.4 (00:00) 13.1 23.06 (10:30) 11.39 (12:10) 0.2 0 0 0.2 0
14-01-2020 15.5 (15:00) 12.8 (00:00) 14.2 23.89 (09:50) 16.39 (09:50) 0 0 0 0 0
13-01-2020 14.9 (16:10) 8.5 (00:00) 11.7 20.28 (21:10) 13.61 (23:59) 0 0 0 0 0
12-01-2020 12.9 (11:20) 6.4 (00:00) 9.6 8.61 (02:20) 5 (02:30) 0 0 0 0 0
11-01-2020 12 (12:40) 7.7 (00:00) 9.8 7.78 (18:20) 5.28 (14:10) 1.8 1.8 0 0 0
10-01-2020 12.1 (14:50) 9.2 (00:00) 10.7 27.5 (01:20) 20.56 (01:20) 4.4 2.2 0.8 1.4 0
09-01-2020 17.6 (14:20) 11.2 (00:00) 14.4 33.89 (16:40) 26.11 (16:40) 0.4 0 0 0.4 0
08-01-2020 15.9 (13:40) 9.7 (00:00) 12.8 6.39 (18:40) 4.17 (18:40) 0 0 0 0 0
07-01-2020 13.4 (13:40) 8.8 (00:00) 11.1 9.17 (11:30) 6.39 (14:20) 0 0 0 0 0
06-01-2020 11.6 (13:40) 5.2 (00:00) 8.4 14.44 (10:30) 10.56 (16:50) 0 0 0 0 0
05-01-2020 10.7 (12:20) 6.2 (00:00) 8.4 10 (09:20) 7.5 (05:00) 0 0 0 0 0
04-01-2020 11.8 (01:40) 9.6 (00:00) 10.7 11.94 (01:50) 9.44 (01:40) 1.4 1 0.4 0 0
01-01-2020 13.7 (11:40) 9.2 (00:00) 11.4 5.28 (16:20) 3.61 (16:20) 0 0 0 0 0
31-12-2019 12.9 (15:10) 8.5 (00:00) 10.7 13.61 (02:20) 9.17 (02:30) 0 0 0 0 0
29-12-2019 11.7 (13:40) 7.5 (00:00) 9.6 8.89 (01:20) 6.67 (14:30) 0 0 0 0 0
28-12-2019 10.3 (00:10) 8.6 (00:00) 9.5 11.67 (14:50) 8.89 (14:20) 0 0 0 0 0
27-12-2019 12.1 (13:30) 8.7 (00:00) 10.4 12.22 (21:20) 9.17 (17:10) 0 0 0 0 0
26-12-2019 20.9 (02:10) 10.1 (00:00) 15.5 29.17 (02:40) 18.06 (02:50) 0 0 0 0 0
25-12-2019 20.7 (22:50) 11.7 (00:00) 16.2 15.83 (23:59) 11.67 (23:59) 0 0 0 0 0
24-12-2019 21.6 (13:40) 13.2 (00:00) 17.4 12.22 (00:10) 8.61 (00:10) 0 0 0 0 0
23-12-2019 17.3 (21:20) 11 (00:00) 14.1 27.5 (00:20) 19.72 (00:30) 0.4 0.4 0 0 0
16-01-2020 19.1 (13:10) 11.5 (00:00) 15.3 15 (22:30) 6.94 (22:30) 0 0 0 0 0
17-01-2020 15.6 (00:00) 8.5 (00:00) 12.1 24.44 (12:00) 19.17 (12:30) 10 0 10 0 0
03-01-2020 13.3 (13:20) 9.2 (00:00) 11.3 11.11 (22:10) 8.33 (23:30) 0.8 0 0 0.2 0.6
21-12-2019 22.2 (14:20) 10.6 (00:00) 16.4 36.94 (14:40) 26.11 (14:50) 4.8 0 0 3.2 1.6
20-12-2019 17.8 (00:00) 10 (00:00) 13.9 31.11 (03:30) 23.89 (03:30) 22.6 20.4 0 0.4 1.8
18-01-2020 16.1 (14:10) 8 (00:00) 12.1 34.17 (17:50) 27.78 (17:50) 10.2 0 0 5.2 5
22-12-2019 15.2 (12:10) 9.3 (00:00) 12.3 48.33 (01:30) -- (--) 17 5.6 0 1.4 10

Gráficas

Temp. máximas Temp. mínimas Temp. medias Precipitaciones Rachas de viento máximas Velocidades máximas media en intervalos de 10 minutos

Datos horarios

Fecha y hora oficial Temperatura (ºC) Velocidad del viento (km/h) Dirección del viento Racha (km/h) Dirección de racha Precipitación (mm) Presión (hPa) Tendencia (hPa) Humedad (%)
2020-01-18 23:00:00 9.4 21 Oeste 44 Oeste 0.8 -- -- 90
2020-01-18 22:00:00 10.2 23 Oeste 41 Sudoeste 0 -- -- 82
2020-01-18 21:00:00 9.8 15 Sudoeste 34 Oeste 0 -- -- 81
2020-01-18 20:00:00 9.3 14 Oeste 39 Oeste 0.8 -- -- 84
2020-01-18 19:00:00 9 28 Oeste 103 Oeste 1.4 -- -- 88
2020-01-18 18:00:00 9.1 84 Oeste -- -- 5.2 -- -- 95
2020-01-18 17:00:00 14 30 Sudoeste 60 Sur 0 -- -- 59
2020-01-18 16:00:00 15.1 21 Sur 56 Sur 0 -- -- 54
2020-01-18 15:00:00 15.1 21 Sur 45 Sudoeste 0 -- -- 52
2020-01-18 14:00:00 15.7 15 Sur 45 Sur 0 -- -- 49
2020-01-18 13:00:00 15 15 Sur 42 Sur 0 -- -- 47
2020-01-18 12:00:00 13.4 21 Sur 42 Sudoeste 0 -- -- 51
2020-01-18 11:00:00 14 12 Sur 30 Sudeste 0 -- -- 48
2020-01-18 10:00:00 11.1 16 Este 25 Este 0 -- -- 63
2020-01-18 09:00:00 8.9 13 Este 25 Este 0 -- -- 75
2020-01-18 08:00:00 8.7 13 Sudeste 25 Este 0 -- -- 72
2020-01-18 07:00:00 9.1 12 Este 20 Este 0 -- -- 68
2020-01-18 06:00:00 8.8 9 Este 17 Este 0 -- -- 73
2020-01-18 05:00:00 9.3 9 Sudeste 27 Sudeste 0 -- -- 68
2020-01-18 04:00:00 9.5 12 Sudeste 24 Sudeste 0 -- -- 67
2020-01-18 03:00:00 9.2 12 Sudeste 18 Sudeste 0 -- -- 73
2020-01-18 02:00:00 9.1 5 Sudeste 12 Sudeste 0 -- -- 75
2020-01-18 01:00:00 9 8 Sur 11 Sur 0 -- -- 73
2020-01-18 00:00:00 8.5 4 Sudeste 13 Sudoeste 0 -- -- 80
2020-01-17 23:00:00 9.4 8 Sudoeste 19 Oeste 0 -- -- 76
2020-01-17 22:00:00 9.6 5 Sudoeste 24 Oeste 0 -- -- 77
2020-01-17 21:00:00 10.5 22 Oeste 39 Oeste 0 -- -- 76
2020-01-17 20:00:00 10.8 37 Oeste 53 Oeste 0 -- -- 70
2020-01-17 19:00:00 10.6 24 Oeste 48 Oeste 0 -- -- 77
2020-01-17 18:00:00 10.2 38 Oeste 63 Oeste 0 -- -- 79
2020-01-17 17:00:00 10.6 34 Oeste 51 Oeste 0 -- -- 79
2020-01-17 16:00:00 10.5 41 Oeste 65 Oeste 0 -- -- 79
2020-01-17 15:00:00 10.4 56 Oeste 76 Oeste 0 -- -- 77
2020-01-17 14:00:00 10.8 46 Oeste 71 Oeste 0 -- -- 73
2020-01-17 13:00:00 11 51 Oeste 82 Oeste 0 -- -- 69
2020-01-17 12:00:00 11.1 67 Oeste 88 Oeste 0 -- -- 72
2020-01-17 11:00:00 10.5 60 Oeste 76 Oeste 0.2 -- -- 81
2020-01-17 10:00:00 9.7 21 Oeste 51 Oeste 0 -- -- 83
2020-01-17 09:00:00 9.7 36 Oeste 66 Oeste 2.6 -- -- 83
2020-01-17 08:00:00 9.6 28 Oeste 67 Oeste 0.8 -- -- 90
2020-01-17 07:00:00 9.1 38 Oeste 64 Oeste 6.4 -- -- 96
2020-01-17 06:00:00 12.4 23 Oeste 43 Noroeste 0 -- -- 76
2020-01-17 05:00:00 12.6 10 Sudoeste 19 Oeste 0 -- -- 72
2020-01-17 04:00:00 11.8 8 Sudoeste 49 Oeste 0 -- -- 90
2020-01-17 03:00:00 14.6 22 Sudoeste 47 Oeste 0 -- -- 51
2020-01-17 02:00:00 15 24 Sudoeste 49 Sudoeste 0 -- -- 49
2020-01-17 01:00:00 14.7 7 Sur 41 Oeste 0 -- -- 52
2020-01-17 00:00:00 15.6 12 Sudoeste 38 Oeste 0 -- -- 46
2020-01-16 23:00:00 16.3 14 Oeste 54 Sudoeste 0 -- -- 40
2020-01-16 22:00:00 17.3 24 Sudoeste 50 Sudoeste 0 -- -- 34
2020-01-16 21:00:00 17.9 14 Sudoeste 34 Sudoeste 0 -- -- 36
2020-01-16 20:00:00 17.9 15 Sur 38 Sudoeste 0 -- -- 29
2020-01-16 19:00:00 17.1 5 Sur 16 Oeste 0 -- -- 40
2020-01-16 18:00:00 16.6 4 Este 14 Sudoeste 0 -- -- 46
2020-01-16 17:00:00 17.2 5 Este 29 Sur 0 -- -- 48
2020-01-16 16:00:00 17.4 8 Sur 22 Sudoeste 0 -- -- 49
2020-01-16 15:00:00 17.1 6 Sur 22 Sur 0 -- -- 51
2020-01-16 14:00:00 18.4 8 Sur 24 Sudoeste 0 -- -- 49
2020-01-16 13:00:00 19 5 Sudoeste 21 Sur 0 -- -- 47
2020-01-16 12:00:00 17.8 6 Sur 27 Oeste 0 -- -- 50
2020-01-16 11:00:00 16.1 17 Nordeste 30 Nordeste 0 -- -- 56
2020-01-16 10:00:00 15.5 18 Este 34 Este 0 -- -- 60
2020-01-16 09:00:00 14.7 8 Nordeste 25 Norte 0 -- -- 60
2020-01-16 08:00:00 15.1 8 Sudoeste 38 Sudoeste 0 -- -- 57
2020-01-16 07:00:00 14.3 8 Este 24 Nordeste 0 -- -- 64
2020-01-16 06:00:00 14.4 10 Este 21 Sudeste 0 -- -- 64
2020-01-16 05:00:00 15.1 6 Sur 30 Sudoeste 0 -- -- 60
2020-01-16 04:00:00 13.9 5 Nordeste 23 Sudeste 0 -- -- 66
2020-01-16 03:00:00 14.5 8 Sur 27 Sur 0 -- -- 61
2020-01-16 02:00:00 14.2 12 Sur 40 Sur 0 -- -- 60
2020-01-16 01:00:00 13.5 12 Sur 25 Sudoeste 0 -- -- 62
2020-01-16 00:00:00 11.5 7 Sudeste 22 Sur 0 -- -- 73
2020-01-15 23:00:00 10.8 12 Sudeste 22 Sudeste 0 -- -- 86
2020-01-15 22:00:00 11.3 15 Sudeste 28 Sudeste 0 -- -- 90
2020-01-15 21:00:00 11.4 15 Sudeste 25 Sudeste 0 -- -- 90
2020-01-15 20:00:00 11.2 10 Sudeste 15 Este 0 -- -- 91
2020-01-15 19:00:00 10.8 8 Sudeste 12 Sudeste 0 -- -- 91
2020-01-15 18:00:00 11.7 6 Sudoeste 20 Oeste 0 -- -- 87
2020-01-15 17:00:00 12.5 19 Oeste 30 Oeste 0 -- -- 87
2020-01-15 16:00:00 13.3 21 Oeste 29 Oeste 0 -- -- 81
2020-01-15 15:00:00 13.6 13 Oeste 20 Sudoeste 0 -- -- 79
2020-01-15 14:00:00 14.8 6 Noroeste 17 Sudoeste 0 -- -- 74
2020-01-15 13:00:00 13.4 9 Oeste 64 Oeste 0.2 -- -- 77
2020-01-15 12:00:00 14 28 Oeste 69 Oeste 0 -- -- 72
2020-01-15 11:00:00 15.7 32 Sudoeste 83 Sudoeste 0 -- -- 49
2020-01-15 10:00:00 15.5 33 Sudoeste 77 Sur 0 -- -- 48
2020-01-15 09:00:00 15.1 20 Sudoeste 51 Sur 0 -- -- 49
2020-01-15 08:00:00 14.8 17 Sudoeste 55 Sudoeste 0 -- -- 51
2020-01-15 07:00:00 14.8 11 Sur 54 Sur 0 -- -- 52
2020-01-15 06:00:00 14.9 21 Sudoeste 69 Sur 0 -- -- 52
2020-01-15 05:00:00 15.1 25 Sudoeste 63 Sur 0 -- -- 51
2020-01-15 04:00:00 15 37 Sur 72 Sur 0 -- -- 51
2020-01-15 03:00:00 14.8 23 Sur 46 Sudoeste 0 -- -- 51
2020-01-15 02:00:00 14 9 Sur 26 Sur 0 -- -- 54
2020-01-15 01:00:00 14.4 13 Sudoeste 41 Sudoeste 0 -- -- 51
2020-01-15 00:00:00 14.3 14 Sur 42 Sur 0 -- -- 48
2020-01-14 23:00:00 14.3 13 Sudoeste 42 Sudoeste 0 -- -- 48
2020-01-14 22:00:00 14.7 13 Sur 42 Sur 0 -- -- 44
2020-01-14 21:00:00 14.8 31 Sudoeste 66 Sudoeste 0 -- -- 43
2020-01-14 20:00:00 14.5 18 Sur 59 Sudoeste 0 -- -- 43
2020-01-14 19:00:00 14.8 34 Sudoeste 64 Sudoeste 0 -- -- 42
2020-01-14 18:00:00 14.2 15 Sur 57 Sudoeste 0 -- -- 46
2020-01-14 17:00:00 14.4 30 Sudoeste 77 Sudoeste 0 -- -- 45
2020-01-14 16:00:00 15.2 38 Sur 67 Sur 0 -- -- 43
2020-01-14 15:00:00 15.5 28 Sudoeste 71 Sudoeste 0 -- -- 42
2020-01-14 14:00:00 15.3 27 Sudoeste 75 Sur 0 -- -- 43
2020-01-14 13:00:00 14.2 55 Sudoeste 86 Sudoeste 0 -- -- 45
2020-01-14 12:00:00 14.5 55 Sudoeste 84 Sur 0 -- -- 47
2020-01-14 11:00:00 14.3 51 Sur 84 Sudoeste 0 -- -- 47
2020-01-14 10:00:00 14.1 58 Sur 86 Sur 0 -- -- 46
2020-01-14 09:00:00 15.2 44 Sur 76 Sur 0 -- -- 42
2020-01-14 08:00:00 14.3 45 Sur 70 Sur 0 -- -- 44
2020-01-14 07:00:00 13.6 45 Sur 76 Sur 0 -- -- 47
2020-01-14 06:00:00 13.3 53 Sur 80 Sur 0 -- -- 47
2020-01-14 05:00:00 13.5 53 Sur 81 Sur 0 -- -- 43
2020-01-14 04:00:00 13.2 52 Sur 81 Sur 0 -- -- 42
2020-01-14 03:00:00 13 50 Sur 75 Sur 0 -- -- 42
2020-01-14 02:00:00 12.9 47 Sudoeste 80 Sudoeste 0 -- -- 42
2020-01-14 01:00:00 12.9 52 Sudoeste 79 Sur 0 -- -- 40
2020-01-14 00:00:00 13.6 49 Sur 69 Sudoeste 0 -- -- 36
2020-01-13 23:00:00 12.4 49 Sudoeste 70 Sudoeste 0 -- -- 33
2020-01-13 22:00:00 13.4 42 Sudoeste 73 Sudoeste 0 -- -- 26
2020-01-13 21:00:00 13.7 48 Sudoeste 73 Sudoeste 0 -- -- 23
2020-01-13 20:00:00 13.8 44 Sudoeste 68 Sudoeste 0 -- -- 25
2020-01-13 19:00:00 13.7 42 Sur 64 Sur 0 -- -- 26
2020-01-13 18:00:00 14.2 42 Sur 63 Sur 0 -- -- 24
2020-01-13 17:00:00 14.5 33 Sudoeste 59 Sur 0 -- -- 26
2020-01-13 16:00:00 14.7 35 Sudoeste 54 Sur 0 -- -- 28
2020-01-13 15:00:00 14.2 34 Sudoeste 53 Sudoeste 0 -- -- 33
2020-01-13 14:00:00 14.2 35 Sudoeste 57 Sudoeste 0 -- -- 32
2020-01-13 13:00:00 13.6 33 Sur 49 Sur 0 -- -- 35
2020-01-13 12:00:00 14.2 7 Noroeste 14 Noroeste 0 -- -- 45
2020-01-13 11:00:00 13.3 4 Noroeste 8 Este 0 -- -- 47
2020-01-13 10:00:00 10.9 3 Este 5 Sudeste 0 -- -- 58
2020-01-13 09:00:00 10 4 Sudeste 6 Este 0 -- -- 60
2020-01-13 08:00:00 10.2 0 Calma 6 Este 0 -- -- 60
2020-01-13 07:00:00 10 4 Sudoeste 10 Sudeste 0 -- -- 65
2020-01-13 06:00:00 10 8 Sudeste 14 Sur 0 -- -- 71
2020-01-13 05:00:00 9.9 3 Sudoeste 10 Sudeste 0 -- -- 72
2020-01-13 04:00:00 10.2 8 Sudeste 12 Sudeste 0 -- -- 68
2020-01-13 03:00:00 9.6 0 Calma 15 Sudeste 0 -- -- 68
2020-01-13 02:00:00 9.2 8 Sudeste 14 Sudeste 0 -- -- 67
2020-01-13 01:00:00 8.7 10 Sudeste 15 Sudeste 0 -- -- 72
2020-01-13 00:00:00 9 10 Sudeste 14 Sudeste 0 -- -- 74
2020-01-12 23:00:00 9.1 10 Sudeste 15 Sudeste 0 -- -- 79
2020-01-12 22:00:00 9.3 10 Sudeste 14 Sudeste 0 -- -- 79
2020-01-12 21:00:00 9.3 9 Sudeste 17 Sudeste 0 -- -- 83
2020-01-12 20:00:00 8.9 9 Sudeste 13 Sudeste 0 -- -- 86
2020-01-12 19:00:00 9.2 6 Sudeste 14 Sudeste 0 -- -- 84
2020-01-12 18:00:00 9.8 9 Sudeste 13 Sudeste 0 -- -- 82
2020-01-12 17:00:00 10.4 9 Sudeste 14 Sudeste 0 -- -- 77
2020-01-12 16:00:00 12.3 7 Sudeste 14 Este 0 -- -- 70
2020-01-12 15:00:00 12.6 9 Este 13 Este 0 -- -- 70
2020-01-12 14:00:00 12.8 4 Este 6 Este 0 -- -- 70
2020-01-12 13:00:00 12.7 2 Nordeste 5 Nordeste 0 -- -- 71
2020-01-12 12:00:00 12.5 0 Calma 5 Oeste 0 -- -- 76
2020-01-12 11:00:00 12.5 3 Sudoeste 10 Sudoeste 0 -- -- 73
2020-01-12 10:00:00 10.6 4 Sudoeste 11 Oeste 0 -- -- 81
2020-01-12 09:00:00 9.3 5 Oeste 18 Sudoeste 0 -- -- 83
2020-01-12 08:00:00 9.1 8 Oeste 21 Oeste 0 -- -- 83
2020-01-12 07:00:00 9.3 13 Oeste 26 Oeste 0 -- -- 79
2020-01-12 06:00:00 9.2 15 Oeste 27 Sudoeste 0 -- -- 80
2020-01-12 05:00:00 9.2 16 Oeste 28 Sudoeste 0 -- -- 81
2020-01-12 04:00:00 9.1 15 Oeste 30 Oeste 0 -- -- 79
2020-01-12 03:00:00 9.1 18 Oeste 31 Oeste 0 -- -- 78
2020-01-12 02:00:00 8.5 11 Oeste 24 Oeste 0 -- -- 79
2020-01-12 01:00:00 6.6 4 Noroeste 10 Oeste 0 -- -- 89
2020-01-12 00:00:00 7.7 5 Oeste 8 Oeste 0 -- -- 83
2020-01-11 23:00:00 8 5 Sudeste 12 Sudeste 0 -- -- 76
2020-01-11 22:00:00 8.8 9 Sudeste 20 Sudeste 0 -- -- 74
2020-01-11 21:00:00 9 12 Sudeste 21 Sudeste 0 -- -- 74
2020-01-11 20:00:00 9.2 12 Sudeste 21 Sudeste 0 -- -- 71
2020-01-11 19:00:00 9.2 13 Sudeste 28 Este 0 -- -- 73
2020-01-11 18:00:00 9.8 15 Este 25 Este 0 -- -- 74
2020-01-11 17:00:00 10.1 18 Este 26 Este 0 -- -- 72
2020-01-11 16:00:00 11 15 Este 23 Este 0 -- -- 71
2020-01-11 15:00:00 11.4 14 Este 25 Este 0 -- -- 70
2020-01-11 14:00:00 11.5 17 Este 22 Este 0 -- -- 70
2020-01-11 13:00:00 11.8 12 Este 17 Sudeste 0 -- -- 68
2020-01-11 12:00:00 11.5 10 Este 15 Este 0 -- -- 73
2020-01-11 11:00:00 11.1 7 Sudeste 15 Sudeste 0 -- -- 77
2020-01-11 10:00:00 8.7 7 Sudeste 16 Sudeste 0 -- -- 82
2020-01-11 09:00:00 8.1 9 Sudeste 17 Sudeste 0 -- -- 86
2020-01-11 08:00:00 7.9 7 Sudeste 15 Sudeste 0 -- -- 93
2020-01-11 07:00:00 8.2 6 Sudeste 17 Sur 0 -- -- 93
2020-01-11 06:00:00 8.2 11 Sudeste 15 Sudeste 0.8 -- -- 93
2020-01-11 05:00:00 9.1 5 Sur 17 Oeste 0 -- -- 89
2020-01-11 04:00:00 9.1 3 Sudeste 8 Sur 0.2 -- -- 87
2020-01-11 03:00:00 8.9 6 Sur 12 Sur 0.4 -- -- 90
2020-01-11 02:00:00 9.3 5 Sudoeste 17 Oeste 0.4 -- -- 87
2020-01-11 01:00:00 9.8 9 Sudoeste 14 Sudoeste 0 -- -- 83
2020-01-11 00:00:00 9.9 2 Sudoeste 14 Sudeste 0 -- -- 75
2020-01-10 23:00:00 10.3 8 Sudeste 15 Sudeste 0 -- -- 73
2020-01-10 22:00:00 10.4 8 Sudeste 17 Este 0 -- -- 75
2020-01-10 21:00:00 10.6 10 Este 16 Este 0 -- -- 71
2020-01-10 20:00:00 11.1 12 Nordeste 24 Nordeste 0 -- -- 64
2020-01-10 19:00:00 11.1 5 Norte 19 Nordeste 0 -- -- 71
2020-01-10 18:00:00 11.2 6 Norte 23 Noroeste 0 -- -- 73
2020-01-10 17:00:00 11.6 11 Noroeste 26 Noroeste 0 -- -- 70
2020-01-10 16:00:00 11.9 16 Noroeste 27 Noroeste 0 -- -- 69
2020-01-10 15:00:00 11.9 14 Noroeste 33 Noroeste 0 -- -- 70
2020-01-10 14:00:00 11.6 27 Noroeste 40 Noroeste 0 -- -- 71
2020-01-10 13:00:00 11.5 30 Oeste 48 Noroeste 1.4 -- -- 79
2020-01-10 12:00:00 11.5 37 Oeste 49 Oeste 0 -- -- 81
2020-01-10 11:00:00 11.4 40 Noroeste 60 Oeste 0 -- -- 76
2020-01-10 10:00:00 10.1 39 Oeste 66 Oeste 0 -- -- 89
2020-01-10 09:00:00 10.1 35 Oeste 68 Oeste 0 -- -- 87
2020-01-10 08:00:00 9.6 48 Oeste 71 Oeste 0.6 -- -- 87
2020-01-10 07:00:00 9.3 55 Oeste 85 Oeste 0.2 -- -- 87
2020-01-10 06:00:00 9.5 37 Oeste 73 Oeste 0.8 -- -- 88
2020-01-10 05:00:00 9.9 45 Oeste 71 Oeste 0.8 -- -- 84
2020-01-10 04:00:00 9.2 57 Oeste 93 Oeste 0.6 -- -- 86
2020-01-10 03:00:00 10.8 62 Oeste 90 Oeste 0 -- -- 77
2020-01-10 02:00:00 10.9 61 Oeste 99 Oeste 0 -- -- 74
2020-01-10 01:00:00 11.5 62 Oeste 90 Oeste 0 -- -- 73
2020-01-10 00:00:00 11.7 52 Oeste 83 Oeste 0 -- -- 72
2020-01-09 23:00:00 11.9 51 Oeste 75 Oeste 0 -- -- 71
2020-01-09 22:00:00 11.8 56 Oeste 76 Oeste 0 -- -- 75
2020-01-09 21:00:00 11.9 43 Oeste 66 Oeste 0 -- -- 76
2020-01-09 20:00:00 11.7 28 Oeste 80 Oeste 0 -- -- 80
2020-01-09 19:00:00 11.9 33 Oeste 60 Oeste 0 -- -- 81
2020-01-09 18:00:00 11.5 36 Oeste 91 Oeste 0.4 -- -- 81
2020-01-09 17:00:00 11.9 71 Oeste 122 Oeste 0 -- -- 82
2020-01-09 16:00:00 17.4 34 Sudoeste 62 Sur 0 -- -- 48
2020-01-09 15:00:00 17.4 42 Sur 62 Sur 0 -- -- 46
2020-01-09 14:00:00 17.2 35 Sur 61 Sudoeste 0 -- -- 47
2020-01-09 13:00:00 16.2 40 Sur 60 Sur 0 -- -- 48
2020-01-09 12:00:00 16.6 32 Sur 57 Sur 0 -- -- 50
2020-01-09 11:00:00 16.4 34 Sur 52 Sur 0 -- -- 50
2020-01-09 10:00:00 15.6 32 Sur 45 Sur 0 -- -- 49
2020-01-09 09:00:00 15.3 28 Sur 49 Sudoeste 0 -- -- 51
2020-01-09 08:00:00 15.3 32 Sur 49 Sudoeste 0 -- -- 47
2020-01-09 07:00:00 15.6 31 Sudoeste 45 Sudoeste 0 -- -- 44
2020-01-09 06:00:00 15.3 28 Sur 39 Sur 0 -- -- 49
2020-01-09 05:00:00 14.8 26 Sudoeste 39 Sudoeste 0 -- -- 55
2020-01-09 04:00:00 13.9 3 Noroeste 11 Este 0 -- -- 60
2020-01-09 03:00:00 13.2 3 Este 9 Sudeste 0 -- -- 65
2020-01-09 02:00:00 12.8 5 Sur 13 Este 0 -- -- 71
2020-01-09 01:00:00 12.3 3 Nordeste 9 Sudeste 0 -- -- 69
2020-01-09 00:00:00 12.7 7 Sur 17 Oeste 0 -- -- 67
2020-01-08 23:00:00 12 4 Sur 14 Sudeste 0 -- -- 69
2020-01-08 22:00:00 11.6 10 Sudeste 17 Sudeste 0 -- -- 66
2020-01-08 21:00:00 11.9 12 Sudeste 19 Sudeste 0 -- -- 63
2020-01-08 20:00:00 11.8 14 Sudeste 22 Sudeste 0 -- -- 66
2020-01-08 19:00:00 11.4 14 Sudeste 23 Este 0 -- -- 80
2020-01-08 18:00:00 11.4 12 Sudeste 19 Sudeste 0 -- -- 90
2020-01-08 17:00:00 11.9 11 Sudeste 16 Sudeste 0 -- -- 86
2020-01-08 16:00:00 14 8 Sudeste 13 Este 0 -- -- 77
2020-01-08 15:00:00 14.3 8 Este 12 Este 0 -- -- 73
2020-01-08 14:00:00 15.6 3 Este 5 Este 0 -- -- 52
2020-01-08 13:00:00 15.2 3 Oeste 4 Sudoeste 0 -- -- 52
2020-01-08 12:00:00 15.2 0 Calma 6 Este 0 -- -- 62
2020-01-08 11:00:00 13.9 3 Sudeste 9 Sudeste 0 -- -- 70
2020-01-08 10:00:00 12.7 5 Sudeste 10 Sudeste 0 -- -- 78
2020-01-08 09:00:00 10.2 0 Calma 7 Sudeste 0 -- -- 87
2020-01-08 08:00:00 9.9 4 Sudeste 8 Sudeste 0 -- -- 85
2020-01-08 07:00:00 10.1 4 Sudeste 7 Sudeste 0 -- -- 85
2020-01-08 06:00:00 10.7 3 Sudoeste 5 Sudoeste 0 -- -- 81
2020-01-08 05:00:00 10.3 3 Sudeste 9 Sur 0 -- -- 84
2020-01-08 04:00:00 9.7 2 Sur 11 Sudoeste 0 -- -- 84
2020-01-08 03:00:00 10.3 7 Oeste 13 Sudoeste 0 -- -- 80
2020-01-08 02:00:00 10.1 3 Oeste 12 Sudoeste 0 -- -- 87
2020-01-08 01:00:00 10.4 9 Oeste 16 Sudoeste 0 -- -- 89
2020-01-08 00:00:00 10.4 0 Calma 13 Sudoeste 0 -- -- 86
2020-01-07 23:00:00 10.5 8 Oeste 9 Oeste 0 -- -- 88
2020-01-07 22:00:00 10.4 2 Sudeste 6 Sudeste 0 -- -- 79
2020-01-07 21:00:00 10.9 5 Sur 17 Este 0 -- -- 76
2020-01-07 20:00:00 11 8 Sudeste 29 Este 0 -- -- 76
2020-01-07 19:00:00 10.9 18 Este 26 Este 0 -- -- 79
2020-01-07 18:00:00 11.1 19 Sudeste 28 Este 0 -- -- 84
2020-01-07 17:00:00 11.3 17 Este 26 Este 0 -- -- 82
2020-01-07 16:00:00 12.5 17 Este 29 Este 0 -- -- 75
2020-01-07 15:00:00 13.1 17 Este 30 Este 0 -- -- 70
2020-01-07 14:00:00 13.4 16 Este 24 Este 0 -- -- 70
2020-01-07 13:00:00 13.2 16 Este 27 Este 0 -- -- 67
2020-01-07 12:00:00 13.2 17 Este 33 Sudeste 0 -- -- 66
2020-01-07 11:00:00 12.2 19 Sudeste 31 Sudeste 0 -- -- 68
2020-01-07 10:00:00 11.4 17 Este 24 Este 0 -- -- 70
2020-01-07 09:00:00 10.7 14 Sudeste 24 Sudeste 0 -- -- 72
2020-01-07 08:00:00 10.3 10 Sudeste 18 Sudeste 0 -- -- 74
2020-01-07 07:00:00 9.8 7 Sudeste 13 Sudeste 0 -- -- 76
2020-01-07 06:00:00 9 5 Sudeste 6 Sudeste 0 -- -- 81
2020-01-07 05:00:00 9 0 Calma 4 Este 0 -- -- 82
2020-01-07 04:00:00 9 0 Calma 5 Noroeste 0 -- -- 81
2020-01-07 03:00:00 9.6 0 Calma 13 Sur 0 -- -- 79
2020-01-07 02:00:00 9.9 8 Sur 12 Sur 0 -- -- 78
2020-01-07 01:00:00 11 8 Sur 21 Oeste 0 -- -- 74
2020-01-07 00:00:00 10.9 15 Oeste 24 Sudoeste 0 -- -- 75
2020-01-06 23:00:00 10.1 17 Oeste 27 Oeste 0 -- -- 81
2020-01-06 22:00:00 9.8 10 Sudoeste 26 Oeste 0 -- -- 85
2020-01-06 21:00:00 10.1 13 Oeste 35 Oeste 0 -- -- 86
2020-01-06 20:00:00 10.9 25 Oeste 39 Oeste 0 -- -- 83
2020-01-06 19:00:00 11 25 Oeste 39 Oeste 0 -- -- 85
2020-01-06 18:00:00 10.2 8 Sur 39 Oeste 0 -- -- 84
2020-01-06 17:00:00 11.3 33 Oeste 49 Oeste 0 -- -- 84
2020-01-06 16:00:00 11.3 33 Oeste 43 Oeste 0 -- -- 81
2020-01-06 15:00:00 11.3 24 Oeste 41 Oeste 0 -- -- 79
2020-01-06 14:00:00 11.4 26 Oeste 39 Oeste 0 -- -- 77
2020-01-06 13:00:00 11.2 17 Oeste 35 Oeste 0 -- -- 75
2020-01-06 12:00:00 11 20 Oeste 43 Oeste 0 -- -- 76
2020-01-06 11:00:00 10.2 24 Oeste 52 Oeste 0 -- -- 78
2020-01-06 10:00:00 9.3 31 Oeste 47 Oeste 0 -- -- 82